LAN941 SCAR-SCEL
Flight info
| Callsign | LAN941 |
|---|---|
| Flight time | 2h 12m |
| Altitude | 37000 |
| Route | LOBAG5L LOBAG UQ803 SIMOK SIMOK7B |
| Aircraft | A320/M-SDE3FGHIRWY/LB1 |
Departure
| Time | 2026-04-25 00:37 |
|---|---|
| Airport | Chacalluta International Airport (SCAR) |
Arrival
| Time | 2026-04-25 02:50 |
|---|---|
| Airport | Comodoro Arturo Merino Benítez International Airport (SCEL) |
| Time | Latitude | Longitude | Altitude | Speed | Heading |
|---|---|---|---|---|---|
| 2026-04-25 00:15 | -18.34920 | -70.33634 | 181 ft | 0 kts | 109° |
| 2026-04-25 00:28 | -18.34919 | -70.33637 | 181 ft | 1 kts | 109° |
| 2026-04-25 00:28 | -18.34914 | -70.33655 | 181 ft | 3 kts | 105° |
| 2026-04-25 00:28 | -18.34909 | -70.33675 | 181 ft | 3 kts | 98° |
| 2026-04-25 00:28 | -18.34907 | -70.33696 | 181 ft | 3 kts | 81° |
| 2026-04-25 00:29 | -18.34913 | -70.33714 | 181 ft | 3 kts | 39° |
| 2026-04-25 00:29 | -18.34919 | -70.33719 | 181 ft | 0 kts | 20° |
| 2026-04-25 00:33 | -18.34910 | -70.33715 | 181 ft | 7 kts | 20° |
| 2026-04-25 00:33 | -18.34851 | -70.33694 | 181 ft | 9 kts | 19° |
| 2026-04-25 00:33 | -18.34798 | -70.33675 | 181 ft | 7 kts | 19° |
| 2026-04-25 00:33 | -18.34723 | -70.33647 | 181 ft | 18 kts | 20° |
| 2026-04-25 00:34 | -18.34584 | -70.33596 | 191 ft | 21 kts | 19° |
| 2026-04-25 00:34 | -18.34450 | -70.33548 | 191 ft | 20 kts | 19° |
| 2026-04-25 00:34 | -18.34321 | -70.33500 | 195 ft | 19 kts | 20° |
| 2026-04-25 00:34 | -18.34210 | -70.33458 | 195 ft | 14 kts | 19° |
| 2026-04-25 00:35 | -18.34128 | -70.33428 | 198 ft | 11 kts | 19° |
| 2026-04-25 00:35 | -18.34045 | -70.33406 | 208 ft | 17 kts | 1° |
| 2026-04-25 00:35 | -18.33961 | -70.33472 | 202 ft | 13 kts | 293° |
| 2026-04-25 00:35 | -18.33940 | -70.33536 | 206 ft | 2 kts | 288° |
| 2026-04-25 00:36 | -18.33946 | -70.33540 | 206 ft | 1 kts | 214° |
| 2026-04-25 00:36 | -18.33959 | -70.33546 | 207 ft | 0 kts | 202° |
| 2026-04-25 00:36 | -18.33966 | -70.33549 | 209 ft | 7 kts | 202° |
| 2026-04-25 00:36 | -18.34257 | -70.33658 | 192 ft | 82 kts | 199° |
| 2026-04-25 00:37 | -18.34990 | -70.33925 | 184 ft | 140 kts | 199° |
| 2026-04-25 00:37 | -18.36024 | -70.34320 | 426 ft | 166 kts | 197° |
| 2026-04-25 00:37 | -18.37197 | -70.34465 | 965 ft | 180 kts | 177° |
| 2026-04-25 00:37 | -18.38519 | -70.34364 | 1283 ft | 202 kts | 177° |
| 2026-04-25 00:38 | -18.40014 | -70.34247 | 1655 ft | 228 kts | 176° |
| 2026-04-25 00:38 | -18.41676 | -70.34117 | 2125 ft | 251 kts | 176° |
| 2026-04-25 00:38 | -18.43466 | -70.33975 | 2819 ft | 263 kts | 175° |
| 2026-04-25 00:38 | -18.45321 | -70.33827 | 3640 ft | 271 kts | 175° |
| 2026-04-25 00:39 | -18.47219 | -70.33677 | 4481 ft | 276 kts | 176° |
| 2026-04-25 00:39 | -18.49152 | -70.33523 | 5375 ft | 279 kts | 175° |
| 2026-04-25 00:39 | -18.51081 | -70.33369 | 6364 ft | 277 kts | 175° |
| 2026-04-25 00:39 | -18.53003 | -70.33215 | 7244 ft | 277 kts | 175° |
| 2026-04-25 00:40 | -18.54938 | -70.33061 | 8032 ft | 280 kts | 175° |
| 2026-04-25 00:40 | -18.56897 | -70.32906 | 8836 ft | 283 kts | 175° |
| 2026-04-25 00:40 | -18.58872 | -70.32742 | 9632 ft | 286 kts | 174° |
| 2026-04-25 00:40 | -18.60854 | -70.32512 | 10345 ft | 289 kts | 172° |
| 2026-04-25 00:41 | -18.62926 | -70.32221 | 10571 ft | 312 kts | 172° |
| 2026-04-25 00:41 | -18.65142 | -70.31885 | 10858 ft | 329 kts | 171° |
| 2026-04-25 00:41 | -18.67432 | -70.31536 | 11415 ft | 335 kts | 172° |
| 2026-04-25 00:41 | -18.69759 | -70.31190 | 12037 ft | 340 kts | 172° |
| 2026-04-25 00:42 | -18.72084 | -70.30853 | 12665 ft | 343 kts | 172° |
| 2026-04-25 00:42 | -18.74463 | -70.30513 | 13294 ft | 347 kts | 173° |
| 2026-04-25 00:42 | -18.76874 | -70.30170 | 13878 ft | 352 kts | 173° |
| 2026-04-25 00:42 | -18.79321 | -70.29823 | 14371 ft | 357 kts | 173° |
| 2026-04-25 00:43 | -18.81797 | -70.29471 | 14882 ft | 361 kts | 173° |
| 2026-04-25 00:43 | -18.84300 | -70.29116 | 15373 ft | 365 kts | 173° |
| 2026-04-25 00:43 | -18.86829 | -70.28756 | 15896 ft | 368 kts | 173° |
| 2026-04-25 00:43 | -18.89383 | -70.28393 | 16405 ft | 372 kts | 173° |
| 2026-04-25 00:44 | -18.91965 | -70.28028 | 16918 ft | 376 kts | 173° |
| 2026-04-25 00:44 | -18.94570 | -70.27661 | 17418 ft | 380 kts | 173° |
| 2026-04-25 00:44 | -18.97199 | -70.27289 | 17918 ft | 383 kts | 172° |
| 2026-04-25 00:44 | -18.99855 | -70.26911 | 18404 ft | 387 kts | 172° |
| 2026-04-25 00:45 | -19.02498 | -70.26542 | 18851 ft | 389 kts | 173° |
| 2026-04-25 00:45 | -19.05190 | -70.26183 | 19311 ft | 391 kts | 173° |
| 2026-04-25 00:45 | -19.07897 | -70.25832 | 19760 ft | 393 kts | 173° |
| 2026-04-25 00:45 | -19.10620 | -70.25484 | 20210 ft | 395 kts | 173° |
| 2026-04-25 00:46 | -19.13358 | -70.25135 | 20663 ft | 397 kts | 174° |
| 2026-04-25 00:46 | -19.16110 | -70.24781 | 21110 ft | 399 kts | 173° |
| 2026-04-25 00:46 | -19.21644 | -70.24057 | 21990 ft | 402 kts | 173° |
| 2026-04-25 00:47 | -19.24433 | -70.23687 | 22408 ft | 405 kts | 173° |
| 2026-04-25 00:47 | -19.27237 | -70.23315 | 22823 ft | 407 kts | 174° |
| 2026-04-25 00:47 | -19.30049 | -70.22943 | 23301 ft | 408 kts | 173° |
| 2026-04-25 00:47 | -19.32869 | -70.22570 | 23705 ft | 409 kts | 173° |
| 2026-04-25 00:48 | -19.35703 | -70.22196 | 24032 ft | 412 kts | 173° |
| 2026-04-25 00:48 | -19.38562 | -70.21817 | 24301 ft | 416 kts | 173° |
| 2026-04-25 00:48 | -19.41443 | -70.21436 | 24614 ft | 419 kts | 174° |
| 2026-04-25 00:48 | -19.44361 | -70.21249 | 24911 ft | 421 kts | 181° |
| 2026-04-25 00:49 | -19.47306 | -70.21257 | 25228 ft | 424 kts | 181° |
| 2026-04-25 00:49 | -19.50266 | -70.21271 | 25530 ft | 427 kts | 181° |
| 2026-04-25 00:49 | -19.53245 | -70.21286 | 25829 ft | 429 kts | 181° |
| 2026-04-25 00:49 | -19.56239 | -70.21303 | 26135 ft | 432 kts | 181° |
| 2026-04-25 00:50 | -19.59255 | -70.21318 | 26431 ft | 435 kts | 180° |
| 2026-04-25 00:50 | -19.62288 | -70.21329 | 26711 ft | 438 kts | 181° |
| 2026-04-25 00:50 | -19.65343 | -70.21336 | 27000 ft | 440 kts | 180° |
| 2026-04-25 00:50 | -19.68413 | -70.21340 | 27265 ft | 443 kts | 181° |
| 2026-04-25 00:51 | -19.71515 | -70.21345 | 27504 ft | 447 kts | 181° |
| 2026-04-25 00:51 | -19.74591 | -70.21357 | 27804 ft | 449 kts | 181° |
| 2026-04-25 00:51 | -19.77719 | -70.21373 | 28102 ft | 451 kts | 181° |
| 2026-04-25 00:51 | -19.80868 | -70.21391 | 28372 ft | 453 kts | 181° |
| 2026-04-25 00:52 | -19.84032 | -70.21404 | 28682 ft | 455 kts | 181° |
| 2026-04-25 00:52 | -19.87206 | -70.21414 | 28957 ft | 458 kts | 181° |
| 2026-04-25 00:52 | -19.90403 | -70.21424 | 29244 ft | 460 kts | 181° |
| 2026-04-25 00:52 | -19.93608 | -70.21433 | 29520 ft | 462 kts | 181° |
| 2026-04-25 00:53 | -19.96835 | -70.21442 | 29792 ft | 465 kts | 181° |
| 2026-04-25 00:53 | -20.00076 | -70.21453 | 30063 ft | 467 kts | 181° |
| 2026-04-25 00:53 | -20.03336 | -70.21464 | 30270 ft | 470 kts | 181° |
| 2026-04-25 00:53 | -20.06613 | -70.21475 | 30488 ft | 472 kts | 181° |
| 2026-04-25 00:54 | -20.09899 | -70.21484 | 30718 ft | 473 kts | 181° |
| 2026-04-25 00:54 | -20.12079 | -70.21489 | 30872 ft | 474 kts | 181° |
| 2026-04-25 00:54 | -20.15383 | -70.21499 | 31102 ft | 475 kts | 181° |
| 2026-04-25 00:54 | -20.18694 | -70.21511 | 31363 ft | 476 kts | 181° |
| 2026-04-25 00:55 | -20.22003 | -70.21524 | 31704 ft | 474 kts | 181° |
| 2026-04-25 00:55 | -20.26412 | -70.21541 | 32163 ft | 473 kts | 181° |
| 2026-04-25 00:55 | -20.28587 | -70.21547 | 32389 ft | 472 kts | 181° |
| 2026-04-25 00:55 | -20.31864 | -70.21559 | 32733 ft | 471 kts | 182° |
| 2026-04-25 00:56 | -20.35139 | -70.21572 | 33073 ft | 470 kts | 182° |
| 2026-04-25 00:56 | -20.38401 | -70.21584 | 33416 ft | 468 kts | 182° |
| 2026-04-25 00:56 | -20.41659 | -70.21597 | 33741 ft | 467 kts | 182° |
| 2026-04-25 00:56 | -20.44907 | -70.21611 | 34085 ft | 466 kts | 182° |
| 2026-04-25 00:57 | -20.48142 | -70.21625 | 34388 ft | 465 kts | 182° |
| 2026-04-25 00:57 | -20.51374 | -70.21638 | 34661 ft | 464 kts | 182° |
| 2026-04-25 00:57 | -20.54605 | -70.21648 | 34925 ft | 464 kts | 182° |
| 2026-04-25 00:57 | -20.57830 | -70.21658 | 35181 ft | 463 kts | 182° |
| 2026-04-25 00:58 | -20.61055 | -70.21666 | 35418 ft | 463 kts | 182° |
| 2026-04-25 00:58 | -20.64276 | -70.21674 | 35676 ft | 463 kts | 182° |
| 2026-04-25 00:58 | -20.67495 | -70.21685 | 35930 ft | 462 kts | 183° |
| 2026-04-25 00:58 | -20.70706 | -70.21699 | 36169 ft | 462 kts | 183° |
| 2026-04-25 00:59 | -20.73921 | -70.21713 | 36402 ft | 461 kts | 183° |
| 2026-04-25 00:59 | -20.77085 | -70.21726 | 36624 ft | 461 kts | 183° |
| 2026-04-25 00:59 | -20.80293 | -70.21740 | 36842 ft | 461 kts | 183° |
| 2026-04-25 00:59 | -20.83502 | -70.21754 | 37016 ft | 461 kts | 183° |
| 2026-04-25 01:00 | -20.86700 | -70.21765 | 37058 ft | 459 kts | 183° |
| 2026-04-25 01:00 | -20.93073 | -70.21784 | 37060 ft | 458 kts | 183° |
| 2026-04-25 01:01 | -20.99441 | -70.21806 | 37062 ft | 457 kts | 183° |
| 2026-04-25 01:01 | -21.05808 | -70.21829 | 37060 ft | 457 kts | 183° |
| 2026-04-25 01:02 | -21.12177 | -70.21847 | 37059 ft | 457 kts | 183° |
| 2026-04-25 01:02 | -21.18540 | -70.21866 | 37058 ft | 457 kts | 183° |
| 2026-04-25 01:03 | -21.24903 | -70.21888 | 37059 ft | 457 kts | 183° |
| 2026-04-25 01:03 | -21.31273 | -70.21911 | 37065 ft | 457 kts | 183° |
| 2026-04-25 01:04 | -21.37590 | -70.21933 | 37066 ft | 457 kts | 183° |
| 2026-04-25 01:04 | -21.43954 | -70.21960 | 37064 ft | 457 kts | 183° |
| 2026-04-25 01:05 | -21.50318 | -70.21986 | 37058 ft | 457 kts | 183° |
| 2026-04-25 01:05 | -21.56691 | -70.22002 | 37064 ft | 457 kts | 184° |
| 2026-04-25 01:06 | -21.63053 | -70.22023 | 37058 ft | 457 kts | 184° |
| 2026-04-25 01:06 | -21.69408 | -70.22053 | 37055 ft | 457 kts | 184° |
| 2026-04-25 01:07 | -21.75765 | -70.22071 | 37054 ft | 457 kts | 184° |
| 2026-04-25 01:07 | -21.82119 | -70.22089 | 37052 ft | 457 kts | 184° |
| 2026-04-25 01:08 | -21.88479 | -70.22117 | 37054 ft | 455 kts | 187° |
| 2026-04-25 01:08 | -21.94717 | -70.22956 | 37047 ft | 451 kts | 193° |
| 2026-04-25 01:09 | -22.00887 | -70.23938 | 37042 ft | 451 kts | 193° |
| 2026-04-25 01:09 | -22.07112 | -70.24914 | 37040 ft | 452 kts | 193° |
| 2026-04-25 01:10 | -22.13336 | -70.25883 | 37031 ft | 452 kts | 193° |
| 2026-04-25 01:10 | -22.19558 | -70.26858 | 37046 ft | 452 kts | 193° |
| 2026-04-25 01:11 | -22.25784 | -70.27841 | 37039 ft | 452 kts | 193° |
| 2026-04-25 01:11 | -22.32000 | -70.28827 | 37039 ft | 452 kts | 193° |
| 2026-04-25 01:12 | -22.38229 | -70.29801 | 37041 ft | 452 kts | 193° |
| 2026-04-25 01:12 | -22.44451 | -70.30786 | 37041 ft | 452 kts | 193° |
| 2026-04-25 01:13 | -22.50666 | -70.31771 | 37049 ft | 452 kts | 194° |
| 2026-04-25 01:13 | -22.56843 | -70.32746 | 37049 ft | 451 kts | 194° |
| 2026-04-25 01:14 | -22.63054 | -70.33729 | 37052 ft | 451 kts | 194° |
| 2026-04-25 01:14 | -22.69265 | -70.34713 | 37045 ft | 451 kts | 194° |
| 2026-04-25 01:15 | -22.75473 | -70.35699 | 37046 ft | 451 kts | 194° |
| 2026-04-25 01:15 | -22.81674 | -70.36688 | 37050 ft | 450 kts | 194° |
| 2026-04-25 01:16 | -22.87877 | -70.37662 | 37054 ft | 451 kts | 191° |
| 2026-04-25 01:16 | -22.94191 | -70.37824 | 37054 ft | 455 kts | 186° |
| 2026-04-25 01:17 | -23.00521 | -70.37869 | 37044 ft | 454 kts | 186° |
| 2026-04-25 01:17 | -23.06843 | -70.37917 | 37040 ft | 454 kts | 186° |
| 2026-04-25 01:18 | -23.13159 | -70.37961 | 37060 ft | 454 kts | 186° |
| 2026-04-25 01:18 | -23.19428 | -70.38009 | 37052 ft | 453 kts | 186° |
| 2026-04-25 01:19 | -23.25733 | -70.38061 | 37042 ft | 453 kts | 186° |
| 2026-04-25 01:19 | -23.32044 | -70.38109 | 37041 ft | 453 kts | 186° |
| 2026-04-25 01:20 | -23.38359 | -70.38159 | 37038 ft | 453 kts | 186° |
| 2026-04-25 01:20 | -23.44671 | -70.38204 | 37050 ft | 454 kts | 187° |
| 2026-04-25 01:21 | -23.50990 | -70.38254 | 37036 ft | 455 kts | 187° |
| 2026-04-25 01:21 | -23.57320 | -70.38298 | 37031 ft | 455 kts | 187° |
| 2026-04-25 01:22 | -23.63661 | -70.38343 | 37034 ft | 455 kts | 187° |
| 2026-04-25 01:22 | -23.69996 | -70.38395 | 37039 ft | 455 kts | 187° |
| 2026-04-25 01:23 | -23.76335 | -70.38450 | 37056 ft | 456 kts | 187° |
| 2026-04-25 01:23 | -23.82687 | -70.38463 | 37048 ft | 457 kts | 186° |
| 2026-04-25 01:24 | -23.89018 | -70.38251 | 37045 ft | 459 kts | 184° |
| 2026-04-25 01:24 | -23.95406 | -70.37962 | 37041 ft | 459 kts | 185° |
| 2026-04-25 01:25 | -24.01792 | -70.37722 | 37037 ft | 459 kts | 185° |
| 2026-04-25 01:25 | -24.08179 | -70.37515 | 37040 ft | 459 kts | 185° |
| 2026-04-25 01:26 | -24.14560 | -70.37313 | 37039 ft | 459 kts | 185° |
| 2026-04-25 01:26 | -24.20938 | -70.37104 | 37046 ft | 459 kts | 185° |
| 2026-04-25 01:27 | -24.27320 | -70.36894 | 37048 ft | 459 kts | 185° |
| 2026-04-25 01:27 | -24.33705 | -70.36678 | 37073 ft | 459 kts | 185° |
| 2026-04-25 01:28 | -24.43239 | -70.36353 | 37060 ft | 458 kts | 185° |
| 2026-04-25 01:28 | -24.49613 | -70.36145 | 37064 ft | 458 kts | 185° |
| 2026-04-25 01:29 | -24.55986 | -70.35926 | 37056 ft | 458 kts | 185° |
| 2026-04-25 01:29 | -24.62358 | -70.35709 | 37062 ft | 458 kts | 185° |
| 2026-04-25 01:30 | -24.68732 | -70.35496 | 37073 ft | 458 kts | 186° |
| 2026-04-25 01:30 | -24.75107 | -70.35283 | 37075 ft | 458 kts | 186° |
| 2026-04-25 01:31 | -24.81474 | -70.35065 | 37075 ft | 457 kts | 185° |
| 2026-04-25 01:31 | -24.87833 | -70.34857 | 37075 ft | 457 kts | 186° |
| 2026-04-25 01:32 | -24.94193 | -70.34653 | 37086 ft | 457 kts | 186° |
| 2026-04-25 01:32 | -25.00513 | -70.34447 | 37066 ft | 457 kts | 186° |
| 2026-04-25 01:33 | -25.06911 | -70.34225 | 37057 ft | 458 kts | 186° |
| 2026-04-25 01:33 | -25.13242 | -70.34002 | 37058 ft | 458 kts | 186° |
| 2026-04-25 01:34 | -25.19610 | -70.33791 | 37054 ft | 458 kts | 186° |
| 2026-04-25 01:34 | -25.25980 | -70.33579 | 37074 ft | 458 kts | 187° |
| 2026-04-25 01:35 | -25.32369 | -70.33364 | 37064 ft | 459 kts | 187° |
| 2026-04-25 01:35 | -25.38747 | -70.33146 | 37056 ft | 459 kts | 187° |
| 2026-04-25 01:36 | -25.45129 | -70.32930 | 37056 ft | 458 kts | 187° |
| 2026-04-25 01:36 | -25.51511 | -70.32714 | 37088 ft | 459 kts | 187° |
| 2026-04-25 01:37 | -25.57898 | -70.32502 | 37085 ft | 459 kts | 187° |
| 2026-04-25 01:37 | -25.64277 | -70.32284 | 37081 ft | 459 kts | 187° |
| 2026-04-25 01:38 | -25.70653 | -70.32064 | 37073 ft | 458 kts | 187° |
| 2026-04-25 01:38 | -25.77026 | -70.31849 | 37076 ft | 458 kts | 187° |
| 2026-04-25 01:39 | -25.83398 | -70.31635 | 37098 ft | 458 kts | 188° |
| 2026-04-25 01:39 | -25.89728 | -70.31417 | 37094 ft | 458 kts | 188° |
| 2026-04-25 01:40 | -25.96104 | -70.31204 | 37084 ft | 457 kts | 188° |
| 2026-04-25 01:40 | -26.02466 | -70.30986 | 37083 ft | 457 kts | 188° |
| 2026-04-25 01:41 | -26.08785 | -70.31010 | 37105 ft | 448 kts | 195° |
| 2026-04-25 01:41 | -26.15007 | -70.31585 | 37084 ft | 449 kts | 195° |
| 2026-04-25 01:42 | -26.21234 | -70.32161 | 37080 ft | 449 kts | 195° |
| 2026-04-25 01:42 | -26.27476 | -70.32731 | 37076 ft | 450 kts | 195° |
| 2026-04-25 01:43 | -26.33676 | -70.33297 | 37075 ft | 450 kts | 195° |
| 2026-04-25 01:43 | -26.39920 | -70.33870 | 37111 ft | 450 kts | 195° |
| 2026-04-25 01:44 | -26.46153 | -70.34449 | 37097 ft | 450 kts | 195° |
| 2026-04-25 01:44 | -26.52389 | -70.35027 | 37093 ft | 450 kts | 195° |
| 2026-04-25 01:45 | -26.57581 | -70.35502 | 37079 ft | 450 kts | 195° |
| 2026-04-25 01:45 | -26.64875 | -70.36172 | 37071 ft | 449 kts | 195° |
| 2026-04-25 01:46 | -26.71115 | -70.36754 | 37114 ft | 450 kts | 196° |
| 2026-04-25 01:46 | -26.76309 | -70.37234 | 37103 ft | 450 kts | 196° |
| 2026-04-25 01:47 | -26.82555 | -70.37810 | 37093 ft | 450 kts | 196° |
| 2026-04-25 01:47 | -26.88792 | -70.38399 | 37093 ft | 450 kts | 196° |
| 2026-04-25 01:48 | -26.95040 | -70.38979 | 37087 ft | 450 kts | 196° |
| 2026-04-25 01:48 | -27.01288 | -70.39555 | 37083 ft | 451 kts | 196° |
| 2026-04-25 01:49 | -27.07535 | -70.40138 | 37081 ft | 451 kts | 196° |
| 2026-04-25 01:49 | -27.13786 | -70.40725 | 37084 ft | 451 kts | 196° |
| 2026-04-25 01:50 | -27.20041 | -70.41311 | 37083 ft | 451 kts | 196° |
| 2026-04-25 01:50 | -27.26259 | -70.41891 | 37115 ft | 451 kts | 197° |
| 2026-04-25 01:51 | -27.32509 | -70.42470 | 37108 ft | 451 kts | 197° |
| 2026-04-25 01:51 | -27.38753 | -70.43055 | 37100 ft | 450 kts | 197° |
| 2026-04-25 01:52 | -27.44994 | -70.43646 | 37096 ft | 450 kts | 197° |
| 2026-04-25 01:52 | -27.51234 | -70.44233 | 37093 ft | 449 kts | 197° |
| 2026-04-25 01:53 | -27.57466 | -70.44819 | 37118 ft | 449 kts | 197° |
| 2026-04-25 01:53 | -27.63687 | -70.45405 | 37119 ft | 448 kts | 197° |
| 2026-04-25 01:54 | -27.69860 | -70.45990 | 37114 ft | 448 kts | 197° |
| 2026-04-25 01:54 | -27.76066 | -70.46576 | 37111 ft | 447 kts | 197° |
| 2026-04-25 01:55 | -27.82268 | -70.47159 | 37099 ft | 447 kts | 197° |
| 2026-04-25 01:55 | -27.88451 | -70.47734 | 37096 ft | 443 kts | 198° |
| 2026-04-25 01:56 | -27.94591 | -70.48316 | 37088 ft | 443 kts | 198° |
| 2026-04-25 01:56 | -28.00738 | -70.48909 | 37089 ft | 443 kts | 198° |
| 2026-04-25 01:57 | -28.09949 | -70.49793 | 37093 ft | 443 kts | 198° |
| 2026-04-25 01:58 | -28.16089 | -70.50376 | 37125 ft | 443 kts | 198° |
| 2026-04-25 01:58 | -28.22230 | -70.50956 | 37107 ft | 443 kts | 198° |
| 2026-04-25 01:59 | -28.28368 | -70.51543 | 37101 ft | 442 kts | 198° |
| 2026-04-25 01:59 | -28.34502 | -70.52134 | 37096 ft | 442 kts | 198° |
| 2026-04-25 02:00 | -28.40640 | -70.52719 | 37128 ft | 442 kts | 199° |
| 2026-04-25 02:00 | -28.45714 | -70.53192 | 37106 ft | 439 kts | 199° |
| 2026-04-25 02:01 | -28.52796 | -70.53865 | 37109 ft | 439 kts | 199° |
| 2026-04-25 02:01 | -28.58888 | -70.54445 | 37108 ft | 440 kts | 199° |
| 2026-04-25 02:02 | -28.64990 | -70.55020 | 37111 ft | 440 kts | 199° |
| 2026-04-25 02:02 | -28.71076 | -70.55585 | 37130 ft | 438 kts | 200° |
| 2026-04-25 02:03 | -28.77139 | -70.56152 | 37116 ft | 436 kts | 200° |
| 2026-04-25 02:03 | -28.83191 | -70.56721 | 37135 ft | 437 kts | 200° |
| 2026-04-25 02:04 | -28.89248 | -70.57297 | 37126 ft | 436 kts | 200° |
| 2026-04-25 02:04 | -28.95284 | -70.57869 | 37122 ft | 435 kts | 200° |
| 2026-04-25 02:05 | -29.01302 | -70.58446 | 37166 ft | 433 kts | 200° |
| 2026-04-25 02:05 | -29.07278 | -70.59020 | 37174 ft | 434 kts | 200° |
| 2026-04-25 02:06 | -29.13286 | -70.59614 | 37171 ft | 433 kts | 200° |
| 2026-04-25 02:06 | -29.19292 | -70.60201 | 37173 ft | 432 kts | 200° |
| 2026-04-25 02:07 | -29.25284 | -70.60764 | 37198 ft | 430 kts | 201° |
| 2026-04-25 02:07 | -29.31229 | -70.61335 | 37155 ft | 428 kts | 201° |
| 2026-04-25 02:08 | -29.37167 | -70.61919 | 37135 ft | 427 kts | 201° |
| 2026-04-25 02:08 | -29.43071 | -70.62497 | 37140 ft | 426 kts | 201° |
| 2026-04-25 02:09 | -29.48962 | -70.63074 | 37143 ft | 428 kts | 201° |
| 2026-04-25 02:09 | -29.54899 | -70.63664 | 37188 ft | 428 kts | 201° |
| 2026-04-25 02:10 | -29.60830 | -70.64239 | 37171 ft | 427 kts | 201° |
| 2026-04-25 02:10 | -29.66747 | -70.64815 | 37165 ft | 426 kts | 201° |
| 2026-04-25 02:11 | -29.72645 | -70.65389 | 37163 ft | 425 kts | 201° |
| 2026-04-25 02:11 | -29.78543 | -70.65968 | 37147 ft | 425 kts | 201° |
| 2026-04-25 02:12 | -29.84442 | -70.66548 | 37141 ft | 426 kts | 201° |
| 2026-04-25 02:12 | -29.90334 | -70.67124 | 37141 ft | 424 kts | 201° |
| 2026-04-25 02:13 | -29.96210 | -70.67703 | 37141 ft | 423 kts | 201° |
| 2026-04-25 02:13 | -30.02046 | -70.68279 | 37135 ft | 424 kts | 201° |
| 2026-04-25 02:14 | -30.07930 | -70.68858 | 37181 ft | 425 kts | 201° |
| 2026-04-25 02:14 | -30.13816 | -70.69437 | 37162 ft | 424 kts | 201° |
| 2026-04-25 02:15 | -30.19696 | -70.70013 | 37161 ft | 424 kts | 201° |
| 2026-04-25 02:15 | -30.25565 | -70.70597 | 37151 ft | 423 kts | 201° |
| 2026-04-25 02:16 | -30.31437 | -70.71182 | 37156 ft | 424 kts | 201° |
| 2026-04-25 02:16 | -30.37315 | -70.71766 | 37169 ft | 422 kts | 201° |
| 2026-04-25 02:17 | -30.43154 | -70.72349 | 37164 ft | 421 kts | 201° |
| 2026-04-25 02:17 | -30.48990 | -70.72932 | 37160 ft | 421 kts | 202° |
| 2026-04-25 02:18 | -30.54830 | -70.73507 | 37153 ft | 420 kts | 201° |
| 2026-04-25 02:18 | -30.60621 | -70.74075 | 37149 ft | 420 kts | 201° |
| 2026-04-25 02:19 | -30.66457 | -70.74647 | 37165 ft | 422 kts | 201° |
| 2026-04-25 02:19 | -30.72269 | -70.75194 | 37135 ft | 419 kts | 201° |
| 2026-04-25 02:20 | -30.78096 | -70.75775 | 37137 ft | 420 kts | 201° |
| 2026-04-25 02:20 | -30.83944 | -70.76347 | 37153 ft | 422 kts | 201° |
| 2026-04-25 02:21 | -30.89795 | -70.76907 | 37169 ft | 421 kts | 201° |
| 2026-04-25 02:21 | -30.95594 | -70.77459 | 37137 ft | 416 kts | 201° |
| 2026-04-25 02:22 | -31.01364 | -70.78025 | 37128 ft | 416 kts | 201° |
| 2026-04-25 02:22 | -31.07132 | -70.78602 | 37149 ft | 418 kts | 201° |
| 2026-04-25 02:23 | -31.12901 | -70.79173 | 37158 ft | 419 kts | 201° |
| 2026-04-25 02:23 | -31.18703 | -70.79738 | 37213 ft | 419 kts | 201° |
| 2026-04-25 02:24 | -31.24554 | -70.80306 | 37198 ft | 418 kts | 201° |
| 2026-04-25 02:24 | -31.30300 | -70.80871 | 37188 ft | 417 kts | 200° |
| 2026-04-25 02:25 | -31.36095 | -70.81446 | 37190 ft | 418 kts | 201° |
| 2026-04-25 02:25 | -31.41887 | -70.82016 | 37241 ft | 418 kts | 200° |
| 2026-04-25 02:26 | -31.47726 | -70.82603 | 37178 ft | 424 kts | 198° |
| 2026-04-25 02:26 | -31.53560 | -70.83165 | 37174 ft | 416 kts | 199° |
| 2026-04-25 02:27 | -31.59334 | -70.83727 | 37182 ft | 418 kts | 200° |
| 2026-04-25 02:27 | -31.65144 | -70.84316 | 37166 ft | 419 kts | 200° |
| 2026-04-25 02:28 | -31.70972 | -70.84899 | 37168 ft | 420 kts | 199° |
| 2026-04-25 02:28 | -31.76801 | -70.85307 | 36499 ft | 431 kts | 193° |
| 2026-04-25 02:28 | -31.79803 | -70.85228 | 35322 ft | 434 kts | 191° |
| 2026-04-25 02:29 | -31.82857 | -70.85116 | 34132 ft | 440 kts | 188° |
| 2026-04-25 02:29 | -31.85907 | -70.84981 | 33022 ft | 436 kts | 188° |
| 2026-04-25 02:29 | -31.88918 | -70.84837 | 32050 ft | 430 kts | 187° |
| 2026-04-25 02:29 | -31.91877 | -70.84697 | 31189 ft | 421 kts | 187° |
| 2026-04-25 02:30 | -31.94782 | -70.84573 | 30376 ft | 414 kts | 187° |
| 2026-04-25 02:30 | -31.97623 | -70.84468 | 29510 ft | 404 kts | 187° |
| 2026-04-25 02:30 | -32.00410 | -70.84372 | 28578 ft | 397 kts | 187° |
| 2026-04-25 02:30 | -32.03150 | -70.84279 | 27664 ft | 391 kts | 187° |
| 2026-04-25 02:31 | -32.05850 | -70.84190 | 26701 ft | 386 kts | 186° |
| 2026-04-25 02:31 | -32.08514 | -70.84103 | 25820 ft | 380 kts | 186° |
| 2026-04-25 02:31 | -32.11138 | -70.84015 | 24976 ft | 375 kts | 186° |
| 2026-04-25 02:31 | -32.13717 | -70.83924 | 24401 ft | 363 kts | 185° |
| 2026-04-25 02:32 | -32.16157 | -70.83830 | 23944 ft | 349 kts | 185° |
| 2026-04-25 02:32 | -32.18543 | -70.83736 | 23442 ft | 338 kts | 186° |
| 2026-04-25 02:32 | -32.20847 | -70.83647 | 23012 ft | 325 kts | 186° |
| 2026-04-25 02:32 | -32.23081 | -70.83562 | 22573 ft | 320 kts | 186° |
| 2026-04-25 02:33 | -32.25296 | -70.83487 | 22149 ft | 318 kts | 186° |
| 2026-04-25 02:33 | -32.27502 | -70.83417 | 21756 ft | 317 kts | 186° |
| 2026-04-25 02:33 | -32.29696 | -70.83347 | 21358 ft | 313 kts | 186° |
| 2026-04-25 02:33 | -32.31875 | -70.83275 | 20965 ft | 313 kts | 185° |
| 2026-04-25 02:34 | -32.34054 | -70.83201 | 20567 ft | 313 kts | 185° |
| 2026-04-25 02:34 | -32.36233 | -70.83128 | 20166 ft | 314 kts | 185° |
| 2026-04-25 02:34 | -32.38422 | -70.83056 | 19784 ft | 315 kts | 185° |
| 2026-04-25 02:34 | -32.40614 | -70.82981 | 19395 ft | 316 kts | 184° |
| 2026-04-25 02:35 | -32.42813 | -70.82904 | 19002 ft | 317 kts | 184° |
| 2026-04-25 02:35 | -32.45026 | -70.82821 | 18609 ft | 319 kts | 184° |
| 2026-04-25 02:35 | -32.47249 | -70.82737 | 18180 ft | 320 kts | 183° |
| 2026-04-25 02:35 | -32.49467 | -70.82651 | 17771 ft | 316 kts | 183° |
| 2026-04-25 02:36 | -32.51642 | -70.82564 | 17400 ft | 311 kts | 182° |
| 2026-04-25 02:36 | -32.53796 | -70.82482 | 17025 ft | 309 kts | 182° |
| 2026-04-25 02:36 | -32.55952 | -70.82401 | 16656 ft | 311 kts | 182° |
| 2026-04-25 02:36 | -32.58117 | -70.82326 | 16271 ft | 312 kts | 182° |
| 2026-04-25 02:37 | -32.59557 | -70.82278 | 16031 ft | 313 kts | 182° |
| 2026-04-25 02:37 | -32.62480 | -70.82181 | 15539 ft | 315 kts | 182° |
| 2026-04-25 02:37 | -32.63936 | -70.82134 | 15285 ft | 316 kts | 181° |
| 2026-04-25 02:37 | -32.66135 | -70.82057 | 14911 ft | 315 kts | 181° |
| 2026-04-25 02:38 | -32.69042 | -70.81951 | 14413 ft | 316 kts | 180° |
| 2026-04-25 02:38 | -32.71235 | -70.81869 | 14193 ft | 312 kts | 180° |
| 2026-04-25 02:38 | -32.72684 | -70.81812 | 14104 ft | 306 kts | 180° |
| 2026-04-25 02:38 | -32.74787 | -70.81732 | 13956 ft | 299 kts | 180° |
| 2026-04-25 02:39 | -32.76860 | -70.81656 | 13594 ft | 300 kts | 180° |
| 2026-04-25 02:39 | -32.78926 | -70.81581 | 13229 ft | 296 kts | 180° |
| 2026-04-25 02:39 | -32.80987 | -70.81508 | 12830 ft | 294 kts | 180° |
| 2026-04-25 02:39 | -32.83021 | -70.81436 | 12443 ft | 292 kts | 180° |
| 2026-04-25 02:40 | -32.85044 | -70.81363 | 12026 ft | 290 kts | 180° |
| 2026-04-25 02:40 | -32.87049 | -70.81289 | 11499 ft | 287 kts | 179° |
| 2026-04-25 02:40 | -32.89036 | -70.81215 | 10962 ft | 285 kts | 179° |
| 2026-04-25 02:40 | -32.91006 | -70.81142 | 10451 ft | 281 kts | 179° |
| 2026-04-25 02:41 | -32.92957 | -70.81255 | 9837 ft | 280 kts | 188° |
| 2026-04-25 02:41 | -32.94871 | -70.81552 | 9331 ft | 275 kts | 188° |
| 2026-04-25 02:41 | -32.96753 | -70.81838 | 8817 ft | 271 kts | 187° |
| 2026-04-25 02:41 | -32.98587 | -70.82114 | 8391 ft | 268 kts | 187° |
| 2026-04-25 02:42 | -33.00430 | -70.82364 | 7970 ft | 266 kts | 182° |
| 2026-04-25 02:42 | -33.02270 | -70.82297 | 7553 ft | 265 kts | 177° |
| 2026-04-25 02:42 | -33.04120 | -70.82195 | 7148 ft | 266 kts | 177° |
| 2026-04-25 02:42 | -33.05965 | -70.82094 | 6773 ft | 266 kts | 177° |
| 2026-04-25 02:43 | -33.07794 | -70.81991 | 6480 ft | 261 kts | 177° |
| 2026-04-25 02:43 | -33.09608 | -70.81887 | 6115 ft | 260 kts | 177° |
| 2026-04-25 02:43 | -33.11406 | -70.81783 | 5750 ft | 258 kts | 177° |
| 2026-04-25 02:43 | -33.13161 | -70.81682 | 5533 ft | 242 kts | 177° |
| 2026-04-25 02:44 | -33.14778 | -70.81589 | 5414 ft | 227 kts | 177° |
| 2026-04-25 02:44 | -33.16345 | -70.81499 | 5314 ft | 224 kts | 176° |
| 2026-04-25 02:44 | -33.17876 | -70.81411 | 5217 ft | 213 kts | 177° |
| 2026-04-25 02:44 | -33.19292 | -70.81330 | 5140 ft | 192 kts | 176° |
| 2026-04-25 02:45 | -33.20533 | -70.81263 | 4984 ft | 173 kts | 176° |
| 2026-04-25 02:45 | -33.21700 | -70.81201 | 4657 ft | 162 kts | 177° |
| 2026-04-25 02:45 | -33.22782 | -70.81143 | 4406 ft | 150 kts | 177° |
| 2026-04-25 02:45 | -33.23806 | -70.81089 | 4207 ft | 145 kts | 176° |
| 2026-04-25 02:46 | -33.24806 | -70.81035 | 4011 ft | 143 kts | 176° |
| 2026-04-25 02:46 | -33.25794 | -70.80982 | 3824 ft | 142 kts | 176° |
| 2026-04-25 02:46 | -33.26778 | -70.80930 | 3638 ft | 141 kts | 176° |
| 2026-04-25 02:46 | -33.27755 | -70.80877 | 3454 ft | 140 kts | 176° |
| 2026-04-25 02:47 | -33.28400 | -70.80843 | 3331 ft | 140 kts | 177° |
| 2026-04-25 02:47 | -33.29372 | -70.80791 | 3143 ft | 140 kts | 177° |
| 2026-04-25 02:48 | -33.32723 | -70.80611 | 2483 ft | 137 kts | 176° |
| 2026-04-25 02:48 | -33.33662 | -70.80561 | 2306 ft | 136 kts | 175° |
| 2026-04-25 02:48 | -33.34608 | -70.80502 | 2108 ft | 136 kts | 175° |
| 2026-04-25 02:48 | -33.35549 | -70.80451 | 1924 ft | 136 kts | 176° |
| 2026-04-25 02:49 | -33.36489 | -70.80408 | 1740 ft | 135 kts | 176° |
| 2026-04-25 02:49 | -33.37427 | -70.80361 | 1598 ft | 134 kts | 176° |
| 2026-04-25 02:49 | -33.38026 | -70.80325 | 1574 ft | 119 kts | 176° |
| 2026-04-25 02:49 | -33.38278 | -70.80314 | 1573 ft | 100 kts | 178° |
| 2026-04-25 02:50 | -33.38912 | -70.80281 | 1574 ft | 31 kts | 177° |
| 2026-04-25 02:50 | -33.39090 | -70.80272 | 1574 ft | 22 kts | 178° |
| 2026-04-25 02:50 | -33.39244 | -70.80243 | 1572 ft | 23 kts | 161° |
| 2026-04-25 02:50 | -33.39391 | -70.80154 | 1569 ft | 25 kts | 147° |
| 2026-04-25 02:51 | -33.39508 | -70.80053 | 1566 ft | 21 kts | 123° |
| 2026-04-25 02:51 | -33.39528 | -70.79998 | 1565 ft | 21 kts | 101° |
| 2026-04-25 02:51 | -33.39521 | -70.79679 | 1565 ft | 25 kts | 86° |
| 2026-04-25 02:51 | -33.39512 | -70.79472 | 1564 ft | 22 kts | 87° |
| 2026-04-25 02:52 | -33.39510 | -70.79413 | 1564 ft | 19 kts | 87° |
| 2026-04-25 02:52 | -33.39499 | -70.79150 | 1564 ft | 21 kts | 87° |
| 2026-04-25 02:52 | -33.39494 | -70.79007 | 1566 ft | 12 kts | 87° |
| 2026-04-25 02:52 | -33.39515 | -70.78961 | 1564 ft | 5 kts | 186° |
| 2026-04-25 02:53 | -33.39547 | -70.78965 | 1564 ft | 4 kts | 184° |
| 2026-04-25 02:53 | -33.39567 | -70.78966 | 1564 ft | 0 kts | 183° |